sensor_id;sensor_type;location;lat;lon;timestamp;temperature;humidity
51719;DHT22;37795;53.236;5.704;2023-11-21T00:00:00;10.10;90.60
51719;DHT22;37795;53.236;5.704;2023-11-21T00:02:26;10.00;90.60
51719;DHT22;37795;53.236;5.704;2023-11-21T00:04:55;10.10;90.70
51719;DHT22;37795;53.236;5.704;2023-11-21T00:07:20;10.10;90.70
51719;DHT22;37795;53.236;5.704;2023-11-21T00:09:47;10.10;90.70
51719;DHT22;37795;53.236;5.704;2023-11-21T00:12:12;10.10;90.70
51719;DHT22;37795;53.236;5.704;2023-11-21T00:14:39;10.10;90.60
51719;DHT22;37795;53.236;5.704;2023-11-21T00:17:05;10.10;90.60
51719;DHT22;37795;53.236;5.704;2023-11-21T00:19:32;10.10;90.70
51719;DHT22;37795;53.236;5.704;2023-11-21T00:21:59;10.10;90.60
51719;DHT22;37795;53.236;5.704;2023-11-21T00:24:25;10.10;90.60
51719;DHT22;37795;53.236;5.704;2023-11-21T00:26:51;10.10;90.50
51719;DHT22;37795;53.236;5.704;2023-11-21T00:29:18;10.10;90.50
51719;DHT22;37795;53.236;5.704;2023-11-21T00:31:44;10.10;90.60
51719;DHT22;37795;53.236;5.704;2023-11-21T00:34:11;10.20;90.60
51719;DHT22;37795;53.236;5.704;2023-11-21T00:36:37;10.20;90.50
51719;DHT22;37795;53.236;5.704;2023-11-21T00:39:03;10.20;90.40
51719;DHT22;37795;53.236;5.704;2023-11-21T00:41:31;10.20;90.50
51719;DHT22;37795;53.236;5.704;2023-11-21T00:43:57;10.20;90.60
51719;DHT22;37795;53.236;5.704;2023-11-21T00:46:24;10.20;90.40
51719;DHT22;37795;53.236;5.704;2023-11-21T00:48:52;10.30;90.30
51719;DHT22;37795;53.236;5.704;2023-11-21T00:51:19;10.30;90.40
51719;DHT22;37795;53.236;5.704;2023-11-21T00:53:46;10.30;90.30
51719;DHT22;37795;53.236;5.704;2023-11-21T00:56:12;10.30;90.20
51719;DHT22;37795;53.236;5.704;2023-11-21T00:58:39;10.30;90.30
51719;DHT22;37795;53.236;5.704;2023-11-21T01:01:04;10.40;90.40
51719;DHT22;37795;53.236;5.704;2023-11-21T01:03:30;10.40;90.30
51719;DHT22;37795;53.236;5.704;2023-11-21T01:05:56;10.30;90.00
51719;DHT22;37795;53.236;5.704;2023-11-21T01:08:21;10.30;90.00
51719;DHT22;37795;53.236;5.704;2023-11-21T01:10:49;10.30;89.90
51719;DHT22;37795;53.236;5.704;2023-11-21T01:13:15;10.30;89.90
51719;DHT22;37795;53.236;5.704;2023-11-21T01:15:41;10.30;89.90
51719;DHT22;37795;53.236;5.704;2023-11-21T01:18:07;10.30;89.80
51719;DHT22;37795;53.236;5.704;2023-11-21T01:20:34;10.40;89.70
51719;DHT22;37795;53.236;5.704;2023-11-21T01:23:00;10.40;89.60
51719;DHT22;37795;53.236;5.704;2023-11-21T01:25:26;10.40;89.50
51719;DHT22;37795;53.236;5.704;2023-11-21T01:27:52;10.40;89.60
51719;DHT22;37795;53.236;5.704;2023-11-21T01:30:17;10.50;89.50
51719;DHT22;37795;53.236;5.704;2023-11-21T01:32:43;10.50;89.50
51719;DHT22;37795;53.236;5.704;2023-11-21T01:35:09;10.50;89.50
51719;DHT22;37795;53.236;5.704;2023-11-21T01:37:36;10.40;89.30
51719;DHT22;37795;53.236;5.704;2023-11-21T01:40:03;10.40;89.30
51719;DHT22;37795;53.236;5.704;2023-11-21T01:42:33;10.50;89.30
51719;DHT22;37795;53.236;5.704;2023-11-21T01:45:00;10.50;89.30
51719;DHT22;37795;53.236;5.704;2023-11-21T01:47:31;10.50;89.30
51719;DHT22;37795;53.236;5.704;2023-11-21T01:49:58;10.50;89.50
51719;DHT22;37795;53.236;5.704;2023-11-21T01:52:24;10.50;89.40
51719;DHT22;37795;53.236;5.704;2023-11-21T01:54:50;10.50;89.40
51719;DHT22;37795;53.236;5.704;2023-11-21T01:57:16;10.50;89.50
51719;DHT22;37795;53.236;5.704;2023-11-21T01:59:42;10.50;89.60
51719;DHT22;37795;53.236;5.704;2023-11-21T02:02:10;10.50;89.60
51719;DHT22;37795;53.236;5.704;2023-11-21T02:04:36;10.50;89.60
51719;DHT22;37795;53.236;5.704;2023-11-21T02:07:03;10.50;89.60
51719;DHT22;37795;53.236;5.704;2023-11-21T02:09:32;10.50;89.70
51719;DHT22;37795;53.236;5.704;2023-11-21T02:11:59;10.40;89.60
51719;DHT22;37795;53.236;5.704;2023-11-21T02:14:26;10.40;89.80
51719;DHT22;37795;53.236;5.704;2023-11-21T02:16:53;10.50;89.80
51719;DHT22;37795;53.236;5.704;2023-11-21T02:19:21;10.40;89.90
51719;DHT22;37795;53.236;5.704;2023-11-21T02:21:56;10.50;89.70
51719;DHT22;37795;53.236;5.704;2023-11-21T02:24:23;10.50;89.80
51719;DHT22;37795;53.236;5.704;2023-11-21T02:26:50;10.50;89.90
51719;DHT22;37795;53.236;5.704;2023-11-21T02:29:22;10.40;89.90
51719;DHT22;37795;53.236;5.704;2023-11-21T02:31:50;10.40;89.80
51719;DHT22;37795;53.236;5.704;2023-11-21T02:34:17;10.40;89.90
51719;DHT22;37795;53.236;5.704;2023-11-21T02:36:44;10.40;89.70
51719;DHT22;37795;53.236;5.704;2023-11-21T02:39:10;10.40;89.60
51719;DHT22;37795;53.236;5.704;2023-11-21T02:41:39;10.40;89.70
51719;DHT22;37795;53.236;5.704;2023-11-21T02:44:06;10.40;89.70
51719;DHT22;37795;53.236;5.704;2023-11-21T02:46:36;10.40;89.70
51719;DHT22;37795;53.236;5.704;2023-11-21T02:49:03;10.40;89.70
51719;DHT22;37795;53.236;5.704;2023-11-21T02:51:29;10.40;89.90
51719;DHT22;37795;53.236;5.704;2023-11-21T02:53:55;10.40;89.80
51719;DHT22;37795;53.236;5.704;2023-11-21T02:56:25;10.40;89.80
51719;DHT22;37795;53.236;5.704;2023-11-21T02:58:52;10.40;89.90
51719;DHT22;37795;53.236;5.704;2023-11-21T03:01:17;10.40;89.80
51719;DHT22;37795;53.236;5.704;2023-11-21T03:03:43;10.40;89.90
51719;DHT22;37795;53.236;5.704;2023-11-21T03:06:09;10.30;89.70
51719;DHT22;37795;53.236;5.704;2023-11-21T03:08:35;10.40;89.70
51719;DHT22;37795;53.236;5.704;2023-11-21T03:11:01;10.40;89.80
51719;DHT22;37795;53.236;5.704;2023-11-21T03:13:30;10.40;89.90
51719;DHT22;37795;53.236;5.704;2023-11-21T03:15:55;10.40;89.70
51719;DHT22;37795;53.236;5.704;2023-11-21T03:18:21;10.40;89.80
51719;DHT22;37795;53.236;5.704;2023-11-21T03:20:51;10.40;89.90
51719;DHT22;37795;53.236;5.704;2023-11-21T03:23:17;10.40;89.80
51719;DHT22;37795;53.236;5.704;2023-11-21T03:25:43;10.40;89.70
51719;DHT22;37795;53.236;5.704;2023-11-21T03:28:09;10.40;89.60
51719;DHT22;37795;53.236;5.704;2023-11-21T03:30:35;10.50;89.90
51719;DHT22;37795;53.236;5.704;2023-11-21T03:33:00;10.50;89.90
51719;DHT22;37795;53.236;5.704;2023-11-21T03:35:26;10.50;90.00
51719;DHT22;37795;53.236;5.704;2023-11-21T03:37:53;10.50;89.90
51719;DHT22;37795;53.236;5.704;2023-11-21T03:40:19;10.50;89.70
51719;DHT22;37795;53.236;5.704;2023-11-21T03:42:46;10.50;89.80
51719;DHT22;37795;53.236;5.704;2023-11-21T03:45:12;10.60;89.80
51719;DHT22;37795;53.236;5.704;2023-11-21T03:47:41;10.60;89.70
51719;DHT22;37795;53.236;5.704;2023-11-21T03:50:07;10.50;89.60
51719;DHT22;37795;53.236;5.704;2023-11-21T03:52:34;10.50;89.40
51719;DHT22;37795;53.236;5.704;2023-11-21T03:55:01;10.40;89.40
51719;DHT22;37795;53.236;5.704;2023-11-21T03:57:27;10.40;89.50
51719;DHT22;37795;53.236;5.704;2023-11-21T03:59:55;10.30;89.30
51719;DHT22;37795;53.236;5.704;2023-11-21T04:02:21;10.30;89.50
51719;DHT22;37795;53.236;5.704;2023-11-21T04:04:47;10.30;89.30
51719;DHT22;37795;53.236;5.704;2023-11-21T04:07:12;10.30;89.40
51719;DHT22;37795;53.236;5.704;2023-11-21T04:09:39;10.20;89.20
51719;DHT22;37795;53.236;5.704;2023-11-21T04:12:07;10.20;89.10
51719;DHT22;37795;53.236;5.704;2023-11-21T04:14:34;10.20;89.30
51719;DHT22;37795;53.236;5.704;2023-11-21T04:17:00;10.20;89.30
51719;DHT22;37795;53.236;5.704;2023-11-21T04:19:25;10.20;89.20
51719;DHT22;37795;53.236;5.704;2023-11-21T04:21:51;10.20;89.20
51719;DHT22;37795;53.236;5.704;2023-11-21T04:24:17;10.20;89.30
51719;DHT22;37795;53.236;5.704;2023-11-21T04:26:44;10.10;89.20
51719;DHT22;37795;53.236;5.704;2023-11-21T04:29:10;10.10;89.30
51719;DHT22;37795;53.236;5.704;2023-11-21T04:31:35;10.20;89.20
51719;DHT22;37795;53.236;5.704;2023-11-21T04:34:01;10.20;89.20
51719;DHT22;37795;53.236;5.704;2023-11-21T04:36:29;10.20;89.10
51719;DHT22;37795;53.236;5.704;2023-11-21T04:38:56;10.20;89.40
51719;DHT22;37795;53.236;5.704;2023-11-21T04:41:22;10.20;89.40
51719;DHT22;37795;53.236;5.704;2023-11-21T04:43:48;10.30;89.30
51719;DHT22;37795;53.236;5.704;2023-11-21T04:46:14;10.20;89.10
51719;DHT22;37795;53.236;5.704;2023-11-21T04:48:40;10.20;89.10
51719;DHT22;37795;53.236;5.704;2023-11-21T04:51:06;10.20;89.10
51719;DHT22;37795;53.236;5.704;2023-11-21T04:53:32;10.20;89.20
51719;DHT22;37795;53.236;5.704;2023-11-21T04:55:58;10.20;89.10
51719;DHT22;37795;53.236;5.704;2023-11-21T04:58:24;10.20;89.30
51719;DHT22;37795;53.236;5.704;2023-11-21T05:00:50;10.10;89.20
51719;DHT22;37795;53.236;5.704;2023-11-21T05:03:15;10.10;89.20
51719;DHT22;37795;53.236;5.704;2023-11-21T05:05:41;10.00;89.10
51719;DHT22;37795;53.236;5.704;2023-11-21T05:08:07;9.90;89.40
51719;DHT22;37795;53.236;5.704;2023-11-21T05:10:33;9.80;89.30
51719;DHT22;37795;53.236;5.704;2023-11-21T05:12:59;9.80;89.40
51719;DHT22;37795;53.236;5.704;2023-11-21T05:15:25;9.70;89.30
51719;DHT22;37795;53.236;5.704;2023-11-21T05:17:53;9.70;89.50
51719;DHT22;37795;53.236;5.704;2023-11-21T05:20:20;9.70;89.70
51719;DHT22;37795;53.236;5.704;2023-11-21T05:22:50;9.70;89.70
51719;DHT22;37795;53.236;5.704;2023-11-21T05:25:16;9.60;89.60
51719;DHT22;37795;53.236;5.704;2023-11-21T05:27:44;9.60;89.40
51719;DHT22;37795;53.236;5.704;2023-11-21T05:30:10;9.50;89.50
51719;DHT22;37795;53.236;5.704;2023-11-21T05:32:37;9.50;89.70
51719;DHT22;37795;53.236;5.704;2023-11-21T05:35:04;9.50;89.60
51719;DHT22;37795;53.236;5.704;2023-11-21T05:37:35;9.40;89.50
51719;DHT22;37795;53.236;5.704;2023-11-21T05:40:01;9.40;89.70
51719;DHT22;37795;53.236;5.704;2023-11-21T05:42:31;9.40;89.60
51719;DHT22;37795;53.236;5.704;2023-11-21T05:44:57;9.40;89.70
51719;DHT22;37795;53.236;5.704;2023-11-21T05:47:24;9.40;89.70
51719;DHT22;37795;53.236;5.704;2023-11-21T05:49:51;9.30;89.40
51719;DHT22;37795;53.236;5.704;2023-11-21T05:52:18;9.30;89.80
51719;DHT22;37795;53.236;5.704;2023-11-21T05:54:43;9.30;89.80
51719;DHT22;37795;53.236;5.704;2023-11-21T05:57:09;9.30;89.70
51719;DHT22;37795;53.236;5.704;2023-11-21T05:59:35;9.30;89.80
51719;DHT22;37795;53.236;5.704;2023-11-21T06:02:01;9.30;89.70
51719;DHT22;37795;53.236;5.704;2023-11-21T06:04:27;9.30;89.80
51719;DHT22;37795;53.236;5.704;2023-11-21T06:06:53;9.30;89.70
51719;DHT22;37795;53.236;5.704;2023-11-21T06:09:19;9.30;89.60
51719;DHT22;37795;53.236;5.704;2023-11-21T06:11:46;9.30;89.70
51719;DHT22;37795;53.236;5.704;2023-11-21T06:14:11;9.20;89.60
51719;DHT22;37795;53.236;5.704;2023-11-21T06:16:37;9.20;89.50
51719;DHT22;37795;53.236;5.704;2023-11-21T06:19:03;9.20;89.60
51719;DHT22;37795;53.236;5.704;2023-11-21T06:21:28;9.20;89.40
51719;DHT22;37795;53.236;5.704;2023-11-21T06:23:54;9.20;89.40
51719;DHT22;37795;53.236;5.704;2023-11-21T06:26:22;9.20;89.60
51719;DHT22;37795;53.236;5.704;2023-11-21T06:28:49;9.20;89.60
51719;DHT22;37795;53.236;5.704;2023-11-21T06:31:16;9.20;89.50
51719;DHT22;37795;53.236;5.704;2023-11-21T06:33:43;9.20;89.50
51719;DHT22;37795;53.236;5.704;2023-11-21T06:36:09;9.20;89.50
51719;DHT22;37795;53.236;5.704;2023-11-21T06:38:37;9.20;89.40
51719;DHT22;37795;53.236;5.704;2023-11-21T06:41:03;9.20;89.60
51719;DHT22;37795;53.236;5.704;2023-11-21T06:43:30;9.20;89.20
51719;DHT22;37795;53.236;5.704;2023-11-21T06:53:02;9.40;88.30
51719;DHT22;37795;53.236;5.704;2023-11-21T06:55:32;9.00;89.50
51719;DHT22;37795;53.236;5.704;2023-11-21T06:57:58;9.00;89.30
51719;DHT22;37795;53.236;5.704;2023-11-21T07:00:25;9.00;89.20
51719;DHT22;37795;53.236;5.704;2023-11-21T07:02:53;9.00;89.20
51719;DHT22;37795;53.236;5.704;2023-11-21T07:05:21;9.00;89.20
51719;DHT22;37795;53.236;5.704;2023-11-21T07:07:47;9.00;89.20
51719;DHT22;37795;53.236;5.704;2023-11-21T07:10:13;9.00;88.80
51719;DHT22;37795;53.236;5.704;2023-11-21T07:12:40;9.00;88.80
51719;DHT22;37795;53.236;5.704;2023-11-21T07:15:06;9.00;88.90
51719;DHT22;37795;53.236;5.704;2023-11-21T07:17:35;9.00;88.80
51719;DHT22;37795;53.236;5.704;2023-11-21T07:20:01;9.00;88.40
51719;DHT22;37795;53.236;5.704;2023-11-21T07:22:27;9.00;88.10
51719;DHT22;37795;53.236;5.704;2023-11-21T07:24:52;9.00;88.40
51719;DHT22;37795;53.236;5.704;2023-11-21T07:27:18;9.00;88.10
51719;DHT22;37795;53.236;5.704;2023-11-21T07:29:44;9.00;88.00
51719;DHT22;37795;53.236;5.704;2023-11-21T07:32:10;9.00;87.80
51719;DHT22;37795;53.236;5.704;2023-11-21T07:34:36;9.00;87.90
51719;DHT22;37795;53.236;5.704;2023-11-21T07:37:03;9.00;87.80
51719;DHT22;37795;53.236;5.704;2023-11-21T07:39:29;9.10;87.70
51719;DHT22;37795;53.236;5.704;2023-11-21T07:41:56;9.00;87.60
51719;DHT22;37795;53.236;5.704;2023-11-21T07:44:23;9.00;87.20
51719;DHT22;37795;53.236;5.704;2023-11-21T07:46:49;9.00;87.60
51719;DHT22;37795;53.236;5.704;2023-11-21T07:49:17;9.00;87.30
51719;DHT22;37795;53.236;5.704;2023-11-21T07:51:45;9.00;87.30
51719;DHT22;37795;53.236;5.704;2023-11-21T07:54:12;9.00;87.40
51719;DHT22;37795;53.236;5.704;2023-11-21T07:56:37;9.10;87.60
51719;DHT22;37795;53.236;5.704;2023-11-21T07:59:03;9.10;87.30
51719;DHT22;37795;53.236;5.704;2023-11-21T08:01:29;9.00;87.10
51719;DHT22;37795;53.236;5.704;2023-11-21T08:03:55;9.10;87.20
51719;DHT22;37795;53.236;5.704;2023-11-21T08:06:24;9.00;87.10
51719;DHT22;37795;53.236;5.704;2023-11-21T08:08:51;9.00;87.00
51719;DHT22;37795;53.236;5.704;2023-11-21T08:11:17;9.00;87.00
51719;DHT22;37795;53.236;5.704;2023-11-21T08:13:42;9.00;87.10
51719;DHT22;37795;53.236;5.704;2023-11-21T08:16:08;9.00;87.00
51719;DHT22;37795;53.236;5.704;2023-11-21T08:18:34;9.00;86.80
51719;DHT22;37795;53.236;5.704;2023-11-21T08:21:00;9.00;86.70
51719;DHT22;37795;53.236;5.704;2023-11-21T08:23:26;9.00;86.50
51719;DHT22;37795;53.236;5.704;2023-11-21T08:25:53;9.00;86.70
51719;DHT22;37795;53.236;5.704;2023-11-21T08:28:19;9.10;86.70
51719;DHT22;37795;53.236;5.704;2023-11-21T08:30:45;9.10;86.50
51719;DHT22;37795;53.236;5.704;2023-11-21T08:33:11;9.10;86.50
51719;DHT22;37795;53.236;5.704;2023-11-21T08:35:37;9.10;86.30
51719;DHT22;37795;53.236;5.704;2023-11-21T08:38:03;9.10;86.30
51719;DHT22;37795;53.236;5.704;2023-11-21T08:40:29;9.10;86.20
51719;DHT22;37795;53.236;5.704;2023-11-21T08:42:56;9.10;85.70
51719;DHT22;37795;53.236;5.704;2023-11-21T08:45:24;9.10;85.80
51719;DHT22;37795;53.236;5.704;2023-11-21T08:47:51;9.10;85.90
51719;DHT22;37795;53.236;5.704;2023-11-21T08:50:17;9.10;85.80
51719;DHT22;37795;53.236;5.704;2023-11-21T08:52:44;9.00;85.70
51719;DHT22;37795;53.236;5.704;2023-11-21T08:55:11;9.00;85.50
51719;DHT22;37795;53.236;5.704;2023-11-21T08:57:43;9.10;85.50
51719;DHT22;37795;53.236;5.704;2023-11-21T09:00:10;9.10;85.50
51719;DHT22;37795;53.236;5.704;2023-11-21T09:02:38;9.10;85.20
51719;DHT22;37795;53.236;5.704;2023-11-21T09:05:10;9.20;85.40
51719;DHT22;37795;53.236;5.704;2023-11-21T09:07:38;9.20;84.90
51719;DHT22;37795;53.236;5.704;2023-11-21T09:10:04;9.20;84.50
51719;DHT22;37795;53.236;5.704;2023-11-21T09:12:33;9.20;84.80
51719;DHT22;37795;53.236;5.704;2023-11-21T09:15:04;9.20;84.30
51719;DHT22;37795;53.236;5.704;2023-11-21T09:17:31;9.20;84.00
51719;DHT22;37795;53.236;5.704;2023-11-21T09:19:56;9.20;84.20
51719;DHT22;37795;53.236;5.704;2023-11-21T09:22:22;9.20;83.70
51719;DHT22;37795;53.236;5.704;2023-11-21T09:24:50;9.20;83.70
51719;DHT22;37795;53.236;5.704;2023-11-21T09:27:16;9.30;83.80
51719;DHT22;37795;53.236;5.704;2023-11-21T09:29:42;9.30;83.90
51719;DHT22;37795;53.236;5.704;2023-11-21T09:32:08;9.30;83.20
51719;DHT22;37795;53.236;5.704;2023-11-21T09:34:38;9.40;83.40
51719;DHT22;37795;53.236;5.704;2023-11-21T09:37:07;9.50;83.30
51719;DHT22;37795;53.236;5.704;2023-11-21T09:39:33;9.60;82.50
51719;DHT22;37795;53.236;5.704;2023-11-21T09:42:23;9.70;82.60
51719;DHT22;37795;53.236;5.704;2023-11-21T09:44:55;10.00;82.30
51719;DHT22;37795;53.236;5.704;2023-11-21T09:47:24;9.90;81.40
51719;DHT22;37795;53.236;5.704;2023-11-21T09:49:52;9.90;80.90
51719;DHT22;37795;53.236;5.704;2023-11-21T09:52:24;10.00;81.10
51719;DHT22;37795;53.236;5.704;2023-11-21T09:54:52;10.00;80.90
51719;DHT22;37795;53.236;5.704;2023-11-21T09:57:24;10.00;80.70
51719;DHT22;37795;53.236;5.704;2023-11-21T09:59:54;10.00;80.60
51719;DHT22;37795;53.236;5.704;2023-11-21T10:02:26;9.90;80.00
51719;DHT22;37795;53.236;5.704;2023-11-21T10:04:54;9.80;79.70
51719;DHT22;37795;53.236;5.704;2023-11-21T10:07:21;9.80;79.50
51719;DHT22;37795;53.236;5.704;2023-11-21T10:09:47;9.70;79.60
51719;DHT22;37795;53.236;5.704;2023-11-21T10:12:16;9.50;79.40
51719;DHT22;37795;53.236;5.704;2023-11-21T10:14:42;9.60;80.00
51719;DHT22;37795;53.236;5.704;2023-11-21T10:17:12;9.50;79.80
51719;DHT22;37795;53.236;5.704;2023-11-21T10:19:42;9.60;79.90
51719;DHT22;37795;53.236;5.704;2023-11-21T10:22:08;9.60;79.90
51719;DHT22;37795;53.236;5.704;2023-11-21T10:24:35;9.40;80.00
51719;DHT22;37795;53.236;5.704;2023-11-21T10:27:00;9.50;80.10
51719;DHT22;37795;53.236;5.704;2023-11-21T10:29:29;9.40;80.10
51719;DHT22;37795;53.236;5.704;2023-11-21T10:31:56;9.40;80.50
51719;DHT22;37795;53.236;5.704;2023-11-21T10:34:24;9.40;80.00
51719;DHT22;37795;53.236;5.704;2023-11-21T10:36:50;9.40;79.70
51719;DHT22;37795;53.236;5.704;2023-11-21T10:39:20;9.40;79.50
51719;DHT22;37795;53.236;5.704;2023-11-21T10:41:47;9.30;79.30
51719;DHT22;37795;53.236;5.704;2023-11-21T10:44:17;9.20;79.20
51719;DHT22;37795;53.236;5.704;2023-11-21T10:53:03;9.10;80.80
51719;DHT22;37795;53.236;5.704;2023-11-21T10:55:30;9.20;81.00
51719;DHT22;37795;53.236;5.704;2023-11-21T10:57:59;9.20;80.30
51719;DHT22;37795;53.236;5.704;2023-11-21T11:00:26;9.40;80.10
51719;DHT22;37795;53.236;5.704;2023-11-21T11:02:53;9.50;79.60
51719;DHT22;37795;53.236;5.704;2023-11-21T11:05:23;9.60;79.50
51719;DHT22;37795;53.236;5.704;2023-11-21T11:08:02;9.50;79.30
51719;DHT22;37795;53.236;5.704;2023-11-21T11:10:29;9.60;79.00
51719;DHT22;37795;53.236;5.704;2023-11-21T11:12:56;9.60;78.10
51719;DHT22;37795;53.236;5.704;2023-11-21T11:15:27;9.70;78.20
51719;DHT22;37795;53.236;5.704;2023-11-21T11:17:54;9.80;77.80
51719;DHT22;37795;53.236;5.704;2023-11-21T11:20:34;9.80;76.10
51719;DHT22;37795;53.236;5.704;2023-11-21T11:26:16;10.00;76.50
51719;DHT22;37795;53.236;5.704;2023-11-21T11:34:50;9.70;76.20
51719;DHT22;37795;53.236;5.704;2023-11-21T11:37:20;9.80;76.20
51719;DHT22;37795;53.236;5.704;2023-11-21T11:39:45;9.90;76.00
51719;DHT22;37795;53.236;5.704;2023-11-21T11:42:16;9.90;75.80
51719;DHT22;37795;53.236;5.704;2023-11-21T11:47:15;9.70;75.50
51719;DHT22;37795;53.236;5.704;2023-11-21T11:50:04;9.70;74.90
51719;DHT22;37795;53.236;5.704;2023-11-21T11:52:38;9.60;75.60
51719;DHT22;37795;53.236;5.704;2023-11-21T11:55:25;9.60;75.60
51719;DHT22;37795;53.236;5.704;2023-11-21T11:57:53;9.50;75.20
51719;DHT22;37795;53.236;5.704;2023-11-21T12:00:33;9.70;75.10
51719;DHT22;37795;53.236;5.704;2023-11-21T12:03:03;9.60;75.00
51719;DHT22;37795;53.236;5.704;2023-11-21T12:05:31;9.70;74.90
51719;DHT22;37795;53.236;5.704;2023-11-21T12:08:10;9.60;75.00
51719;DHT22;37795;53.236;5.704;2023-11-21T12:10:38;9.60;74.60
51719;DHT22;37795;53.236;5.704;2023-11-21T12:13:09;9.50;75.00
51719;DHT22;37795;53.236;5.704;2023-11-21T12:15:37;9.60;75.00
51719;DHT22;37795;53.236;5.704;2023-11-21T12:18:04;9.60;74.20
51719;DHT22;37795;53.236;5.704;2023-11-21T12:20:31;9.60;73.70
51719;DHT22;37795;53.236;5.704;2023-11-21T12:23:00;9.70;73.40
51719;DHT22;37795;53.236;5.704;2023-11-21T12:25:28;9.80;73.10
51719;DHT22;37795;53.236;5.704;2023-11-21T12:28:02;10.00;73.10
51719;DHT22;37795;53.236;5.704;2023-11-21T12:30:33;9.90;72.60
51719;DHT22;37795;53.236;5.704;2023-11-21T12:33:02;10.10;72.90
51719;DHT22;37795;53.236;5.704;2023-11-21T12:35:29;10.00;71.50
51719;DHT22;37795;53.236;5.704;2023-11-21T12:37:56;9.90;71.10
51719;DHT22;37795;53.236;5.704;2023-11-21T12:40:26;9.80;71.60
51719;DHT22;37795;53.236;5.704;2023-11-21T12:42:53;9.70;71.70
51719;DHT22;37795;53.236;5.704;2023-11-21T12:50:28;9.70;72.80
51719;DHT22;37795;53.236;5.704;2023-11-21T12:53:01;9.80;72.60
51719;DHT22;37795;53.236;5.704;2023-11-21T12:55:31;11.50;70.70
51719;DHT22;37795;53.236;5.704;2023-11-21T12:57:57;11.30;65.60
51719;DHT22;37795;53.236;5.704;2023-11-21T13:00:33;10.60;68.80
51719;DHT22;37795;53.236;5.704;2023-11-21T13:03:04;10.60;69.60
51719;DHT22;37795;53.236;5.704;2023-11-21T13:05:34;10.60;69.30
51719;DHT22;37795;53.236;5.704;2023-11-21T13:08:04;10.60;69.30
51719;DHT22;37795;53.236;5.704;2023-11-21T13:10:34;10.40;69.40
51719;DHT22;37795;53.236;5.704;2023-11-21T13:13:04;10.50;69.40
51719;DHT22;37795;53.236;5.704;2023-11-21T13:15:51;10.40;69.20
51719;DHT22;37795;53.236;5.704;2023-11-21T13:18:18;10.40;70.20
51719;DHT22;37795;53.236;5.704;2023-11-21T13:20:44;10.40;69.60
51719;DHT22;37795;53.236;5.704;2023-11-21T13:23:12;10.20;69.70
51719;DHT22;37795;53.236;5.704;2023-11-21T13:25:38;10.00;70.10
51719;DHT22;37795;53.236;5.704;2023-11-21T13:28:07;10.00;70.80
51719;DHT22;37795;53.236;5.704;2023-11-21T13:30:33;9.90;70.50
51719;DHT22;37795;53.236;5.704;2023-11-21T13:33:00;9.90;71.30
51719;DHT22;37795;53.236;5.704;2023-11-21T13:35:32;9.80;71.00
51719;DHT22;37795;53.236;5.704;2023-11-21T13:38:07;9.70;71.60
51719;DHT22;37795;53.236;5.704;2023-11-21T13:40:34;9.60;72.60
51719;DHT22;37795;53.236;5.704;2023-11-21T13:43:08;9.60;73.30
51719;DHT22;37795;53.236;5.704;2023-11-21T13:45:42;9.50;74.30
51719;DHT22;37795;53.236;5.704;2023-11-21T13:48:09;9.50;74.60
51719;DHT22;37795;53.236;5.704;2023-11-21T13:50:43;9.40;75.00
51719;DHT22;37795;53.236;5.704;2023-11-21T13:53:29;9.30;75.70
51719;DHT22;37795;53.236;5.704;2023-11-21T13:55:55;9.30;76.10
51719;DHT22;37795;53.236;5.704;2023-11-21T13:58:23;9.10;76.40
51719;DHT22;37795;53.236;5.704;2023-11-21T14:01:07;9.10;77.30
51719;DHT22;37795;53.236;5.704;2023-11-21T14:03:50;9.00;78.30
51719;DHT22;37795;53.236;5.704;2023-11-21T14:06:22;9.00;79.10
51719;DHT22;37795;53.236;5.704;2023-11-21T14:08:53;8.80;79.90
51719;DHT22;37795;53.236;5.704;2023-11-21T14:11:22;8.80;80.30
51719;DHT22;37795;53.236;5.704;2023-11-21T14:13:49;8.70;80.50
51719;DHT22;37795;53.236;5.704;2023-11-21T14:16:17;8.70;80.00
51719;DHT22;37795;53.236;5.704;2023-11-21T14:18:44;8.50;80.20
51719;DHT22;37795;53.236;5.704;2023-11-21T14:21:24;8.60;80.30
51719;DHT22;37795;53.236;5.704;2023-11-21T14:23:49;8.60;79.90
51719;DHT22;37795;53.236;5.704;2023-11-21T14:26:15;8.60;79.90
51719;DHT22;37795;53.236;5.704;2023-11-21T14:28:42;8.60;79.60
51719;DHT22;37795;53.236;5.704;2023-11-21T14:31:08;8.60;79.70
51719;DHT22;37795;53.236;5.704;2023-11-21T14:33:39;8.50;79.30
51719;DHT22;37795;53.236;5.704;2023-11-21T14:36:05;8.40;79.80
51719;DHT22;37795;53.236;5.704;2023-11-21T14:38:33;8.40;80.00
51719;DHT22;37795;53.236;5.704;2023-11-21T14:40:59;8.30;79.90
51719;DHT22;37795;53.236;5.704;2023-11-21T14:43:25;8.20;80.60
51719;DHT22;37795;53.236;5.704;2023-11-21T14:45:55;8.20;80.70
51719;DHT22;37795;53.236;5.704;2023-11-21T14:48:22;8.10;81.00
51719;DHT22;37795;53.236;5.704;2023-11-21T14:51:11;8.20;81.00
51719;DHT22;37795;53.236;5.704;2023-11-21T14:53:59;8.10;80.90
51719;DHT22;37795;53.236;5.704;2023-11-21T14:56:35;8.20;81.10
51719;DHT22;37795;53.236;5.704;2023-11-21T14:59:03;8.10;81.00
51719;DHT22;37795;53.236;5.704;2023-11-21T15:01:34;8.10;81.20
51719;DHT22;37795;53.236;5.704;2023-11-21T15:04:21;8.10;81.20
51719;DHT22;37795;53.236;5.704;2023-11-21T15:07:02;8.10;81.00
51719;DHT22;37795;53.236;5.704;2023-11-21T15:09:28;8.10;80.70
51719;DHT22;37795;53.236;5.704;2023-11-21T15:11:57;8.00;80.50
51719;DHT22;37795;53.236;5.704;2023-11-21T15:14:29;8.00;80.50
51719;DHT22;37795;53.236;5.704;2023-11-21T15:16:58;7.90;80.30
51719;DHT22;37795;53.236;5.704;2023-11-21T15:19:26;7.90;80.30
51719;DHT22;37795;53.236;5.704;2023-11-21T15:21:54;7.90;80.30
51719;DHT22;37795;53.236;5.704;2023-11-21T15:24:20;7.80;80.20
51719;DHT22;37795;53.236;5.704;2023-11-21T15:26:45;7.70;80.40
51719;DHT22;37795;53.236;5.704;2023-11-21T15:29:11;7.60;80.50
51719;DHT22;37795;53.236;5.704;2023-11-21T15:31:38;7.60;80.50
51719;DHT22;37795;53.236;5.704;2023-11-21T15:34:06;7.60;80.60
51719;DHT22;37795;53.236;5.704;2023-11-21T15:36:33;7.60;80.60
51719;DHT22;37795;53.236;5.704;2023-11-21T15:38:59;7.50;80.60
51719;DHT22;37795;53.236;5.704;2023-11-21T15:41:25;7.50;80.60
51719;DHT22;37795;53.236;5.704;2023-11-21T15:43:51;7.40;80.60
51719;DHT22;37795;53.236;5.704;2023-11-21T15:46:17;7.30;80.40
51719;DHT22;37795;53.236;5.704;2023-11-21T15:48:42;7.30;80.60
51719;DHT22;37795;53.236;5.704;2023-11-21T15:51:15;7.20;80.70
51719;DHT22;37795;53.236;5.704;2023-11-21T15:53:42;7.20;80.90
51719;DHT22;37795;53.236;5.704;2023-11-21T15:56:08;7.20;80.90
51719;DHT22;37795;53.236;5.704;2023-11-21T15:58:38;7.20;80.90
51719;DHT22;37795;53.236;5.704;2023-11-21T16:01:11;7.10;80.90
51719;DHT22;37795;53.236;5.704;2023-11-21T16:03:38;7.10;80.90
51719;DHT22;37795;53.236;5.704;2023-11-21T16:06:05;7.10;81.00
51719;DHT22;37795;53.236;5.704;2023-11-21T16:08:31;7.10;81.10
51719;DHT22;37795;53.236;5.704;2023-11-21T16:10:57;7.10;81.30
51719;DHT22;37795;53.236;5.704;2023-11-21T16:13:25;7.10;81.40